Time;durP1;ratioP1;P1;durP2;ratioP2;P2;SDS_P1;SDS_P2;PMS_P1;PMS_P2;Temp;Humidity;BMP_temperature;BMP_pressure;BME280_temperature;BME280_humidity;BME280_pressure;Samples;Min_cycle;Max_cycle;Signal;HPM_P1;HPM_P2
2022/07/16 00:03:24;;;;;;;5.60;3.93;;;;;;;19.46;46.59;99200.66;7001410;28;20222;-79
2022/07/16 00:06:46;;;;;;;7.03;4.23;;;;;;;19.00;47.41;99167.41;7007929;28;20229;-79
2022/07/16 00:10:09;;;;;;;5.30;4.00;;;;;;;19.59;46.51;99196.75;7005137;28;20233;-78
2022/07/16 00:13:32;;;;;;;4.97;3.70;;;;;;;19.78;45.93;99192.59;7002430;28;20234;-78
2022/07/16 00:17:00;;;;;;;8.83;4.60;;;;;;;19.08;47.58;99199.78;7002863;28;20225;-78
2022/07/16 00:20:21;;;;;;;6.10;4.80;;;;;;;18.48;49.02;99196.03;7007189;28;20205;-78
2022/07/16 00:23:43;;;;;;;5.17;4.10;;;;;;;19.38;47.36;99198.38;7007009;28;20226;-78
2022/07/16 00:27:05;;;;;;;4.47;3.70;;;;;;;19.24;47.52;99201.72;7008816;28;20221;-78
2022/07/16 00:30:28;;;;;;;4.53;4.13;;;;;;;18.71;47.52;99119.41;7011275;28;20583;-78
2022/07/16 00:33:49;;;;;;;9.43;4.67;;;;;;;19.40;46.84;99198.13;7006765;28;20301;-78
2022/07/16 00:37:11;;;;;;;5.23;4.63;;;;;;;18.81;47.63;99209.75;7012882;28;20249;-79
2022/07/16 00:40:33;;;;;;;4.80;4.23;;;;;;;18.83;48.10;99207.59;7026290;28;20190;-78
2022/07/16 00:43:59;;;;;;;4.83;4.30;;;;;;;19.19;47.26;99191.50;7006177;28;20386;-78
2022/07/16 00:47:22;;;;;;;4.70;4.03;;;;;;;19.14;46.97;99175.03;7005569;28;20244;-78
2022/07/16 00:50:43;;;;;;;4.87;3.97;;;;;;;19.35;46.81;99200.78;7005983;28;20564;-78
2022/07/16 00:54:05;;;;;;;4.83;4.20;;;;;;;19.37;46.83;99191.25;7005683;28;20225;-78
2022/07/16 00:57:27;;;;;;;4.63;4.10;;;;;;;19.21;47.14;99194.84;7005441;28;20243;-79
2022/07/16 01:00:48;;;;;;;4.00;3.70;;;;;;;19.25;46.74;99196.00;7005609;28;20273;-78
2022/07/16 01:04:11;;;;;;;6.23;4.43;;;;;;;19.09;47.50;99205.00;7004634;28;20263;-78
2022/07/16 01:07:34;;;;;;;4.30;3.90;;;;;;;19.03;47.53;99213.38;7005696;28;20179;-79
2022/07/16 01:10:56;;;;;;;4.93;4.10;;;;;;;18.87;47.24;99154.09;7022278;28;20214;-79
2022/07/16 01:14:18;;;;;;;5.33;4.83;;;;;;;18.57;47.88;99140.78;7021280;28;20233;-79
2022/07/16 01:17:40;;;;;;;4.77;4.30;;;;;;;17.97;49.35;99161.50;7021348;28;20216;-79
2022/07/16 01:21:04;;;;;;;5.20;4.70;;;;;;;18.08;50.02;99195.25;7020298;28;20210;-79
2022/07/16 01:24:27;;;;;;;5.00;4.20;;;;;;;18.38;49.57;99199.44;7010203;28;20564;-79
2022/07/16 01:27:48;;;;;;;6.27;4.67;;;;;;;18.12;50.47;99208.19;7006932;28;20272;-78
2022/07/16 01:31:10;;;;;;;5.40;4.90;;;;;;;17.86;51.03;99206.00;7004868;28;20248;-79
2022/07/16 01:34:32;;;;;;;5.13;4.60;;;;;;;18.18;50.17;99212.69;7005923;28;20323;-79
2022/07/16 01:37:53;;;;;;;5.00;4.50;;;;;;;18.61;48.67;99206.66;7004695;28;20197;-80
2022/07/16 01:41:16;;;;;;;7.33;4.53;;;;;;;18.72;48.40;99213.94;7005604;28;20206;-80
2022/07/16 01:44:41;;;;;;;4.70;4.17;;;;;;;18.71;47.98;99198.63;7006470;28;20237;-79
2022/07/16 01:48:02;;;;;;;6.10;4.63;;;;;;;18.45;48.12;99197.38;7016680;28;20827;-79
2022/07/16 01:51:24;;;;;;;5.57;4.40;;;;;;;18.39;48.97;99212.00;7012881;28;20202;-79
2022/07/16 01:54:48;;;;;;;9.20;4.57;;;;;;;18.37;49.03;99210.59;7005107;28;20304;-79
2022/07/16 01:58:12;;;;;;;6.57;4.50;;;;;;;18.32;48.88;99214.06;7003783;28;20206;-79
2022/07/16 02:01:34;;;;;;;5.80;4.63;;;;;;;18.30;49.64;99209.88;7005106;28;20263;-79
2022/07/16 02:04:55;;;;;;;4.60;4.20;;;;;;;18.56;48.56;99204.66;7004223;28;20226;-79
2022/07/16 02:08:17;;;;;;;5.67;4.73;;;;;;;18.39;48.68;99203.81;7004548;28;20732;-79
2022/07/16 02:11:39;;;;;;;5.10;4.60;;;;;;;18.19;49.41;99202.56;7004611;28;20235;-78
2022/07/16 02:15:02;;;;;;;5.03;4.63;;;;;;;18.11;49.63;99217.44;7004188;28;20372;-79
2022/07/16 02:18:23;;;;;;;5.30;4.80;;;;;;;18.36;49.06;99217.97;7003176;28;20229;-79
2022/07/16 02:21:45;;;;;;;4.83;4.33;;;;;;;18.02;49.54;99210.72;7003386;28;20240;-79
2022/07/16 02:25:08;;;;;;;5.43;4.87;;;;;;;18.13;49.73;99226.22;7003497;28;20236;-79
2022/07/16 02:28:30;;;;;;;4.73;4.33;;;;;;;18.40;48.22;99216.38;7003616;28;20363;-79
2022/07/16 02:31:53;;;;;;;4.93;4.53;;;;;;;18.32;48.65;99213.22;7007706;28;20205;-79
2022/07/16 02:35:14;;;;;;;6.13;4.67;;;;;;;17.69;50.36;99213.28;7003415;28;20230;-78
2022/07/16 02:38:36;;;;;;;5.37;4.80;;;;;;;17.83;50.21;99216.59;7003416;28;20653;-79
2022/07/16 02:41:57;;;;;;;5.37;4.83;;;;;;;18.00;49.68;99206.56;7021543;28;20239;-79
2022/07/16 02:45:19;;;;;;;4.90;4.40;;;;;;;17.98;49.14;99193.16;7017428;28;20222;-79
2022/07/16 02:48:42;;;;;;;5.20;4.70;;;;;;;18.11;48.94;99208.44;7002357;28;20348;-79
2022/07/16 02:52:04;;;;;;;5.13;4.63;;;;;;;17.87;49.14;99223.22;7003513;28;20237;-79
2022/07/16 02:55:26;;;;;;;6.87;5.10;;;;;;;17.50;50.30;99217.25;7002869;28;20636;-78
2022/07/16 02:58:47;;;;;;;5.60;5.10;;;;;;;16.63;53.10;99220.00;7001610;28;20249;-79
2022/07/16 03:02:10;;;;;;;7.20;5.33;;;;;;;16.87;53.15;99210.00;7029956;28;20211;-79
2022/07/16 03:05:33;;;;;;;5.73;5.10;;;;;;;17.00;52.59;99215.22;7029746;28;20264;-79
2022/07/16 03:08:54;;;;;;;6.37;5.30;;;;;;;17.35;51.91;99227.75;7031934;28;20224;-79
2022/07/16 03:12:18;;;;;;;5.20;4.70;;;;;;;17.42;51.18;99216.78;7033682;28;20278;-78
2022/07/16 03:15:39;;;;;;;5.77;4.77;;;;;;;17.60;50.58;99228.38;7031925;28;20233;-79
2022/07/16 03:19:01;;;;;;;6.63;5.40;;;;;;;17.38;50.85;99223.75;7031153;28;20204;-80
2022/07/16 03:22:24;;;;;;;5.70;5.20;;;;;;;17.50;50.95;99219.13;7032306;28;20289;-78
2022/07/16 03:25:45;;;;;;;5.30;4.50;;;;;;;17.43;50.82;99210.25;7032632;28;20231;-79
2022/07/16 03:29:07;;;;;;;5.17;4.67;;;;;;;17.41;51.05;99221.41;7033261;28;20237;-79
2022/07/16 03:32:28;;;;;;;6.50;5.23;;;;;;;17.49;50.98;99223.78;7035479;28;20204;-80
2022/07/16 03:35:50;;;;;;;6.57;4.87;;;;;;;17.56;50.49;99224.47;7034838;28;20236;-80
2022/07/16 03:39:13;;;;;;;7.10;5.10;;;;;;;17.66;50.19;99215.66;7034246;28;20250;-79
2022/07/16 03:42:34;;;;;;;6.80;5.37;;;;;;;17.62;49.95;99220.78;7034468;28;20685;-79
2022/07/16 03:45:56;;;;;;;6.30;5.40;;;;;;;17.27;51.23;99213.69;7034391;28;20228;-79
2022/07/16 03:49:18;;;;;;;6.83;6.07;;;;;;;17.51;50.51;99232.53;7034437;28;20244;-79
2022/07/16 03:52:39;;;;;;;5.70;5.20;;;;;;;17.32;51.11;99227.41;7034425;28;20204;-79
2022/07/16 03:56:02;;;;;;;7.03;5.87;;;;;;;16.87;52.15;99220.91;7040987;28;20317;-79
2022/07/16 03:59:24;;;;;;;6.00;5.40;;;;;;;17.19;51.68;99239.41;7040107;28;20219;-79
2022/07/16 04:02:46;;;;;;;5.53;4.93;;;;;;;16.95;52.17;99204.19;7040445;28;20202;-79
2022/07/16 04:06:07;;;;;;;5.30;4.80;;;;;;;16.72;51.61;99122.47;7039921;28;20692;-79
2022/07/16 04:09:29;;;;;;;6.67;4.80;;;;;;;17.51;50.96;99245.34;7039371;28;20227;-79
2022/07/16 04:12:52;;;;;;;5.30;4.77;;;;;;;17.63;50.24;99232.53;7040542;28;20261;-79
2022/07/16 04:16:13;;;;;;;6.27;5.50;;;;;;;17.46;50.38;99234.31;7040730;28;20605;-79
2022/07/16 04:19:35;;;;;;;6.33;5.00;;;;;;;17.68;49.73;99244.38;7040420;28;20231;-79
2022/07/16 04:22:56;;;;;;;7.23;5.53;;;;;;;17.69;49.77;99259.66;7040638;28;20201;-79
2022/07/16 04:26:18;;;;;;;6.10;5.20;;;;;;;17.57;50.26;99244.41;7040789;28;20225;-79
2022/07/16 04:29:41;;;;;;;8.23;5.20;;;;;;;17.29;51.04;99253.25;7039511;28;20284;-79
2022/07/16 04:33:03;;;;;;;5.47;4.97;;;;;;;17.73;50.16;99260.84;7053222;28;20216;-79
2022/07/16 04:36:25;;;;;;;7.10;5.10;;;;;;;17.81;49.50;99259.66;7055538;28;20611;-79
2022/07/16 04:39:46;;;;;;;5.73;5.03;;;;;;;17.17;52.08;99259.78;7058958;28;20196;-79
2022/07/16 04:43:08;;;;;;;10.23;5.93;;;;;;;16.47;53.86;99249.81;7047649;28;20224;-81
2022/07/16 04:46:31;;;;;;;7.80;5.77;;;;;;;16.79;53.55;99229.41;7060874;28;20194;-79
2022/07/16 04:49:52;;;;;;;6.67;5.60;;;;;;;17.09;53.66;99258.22;7036235;28;20232;-79
2022/07/16 04:53:14;;;;;;;9.57;5.63;;;;;;;17.60;52.78;99268.44;7036990;28;20204;-79
2022/07/16 04:56:35;;;;;;;8.60;5.43;;;;;;;18.40;50.51;99257.34;7036192;28;20290;-80
2022/07/16 04:59:57;;;;;;;5.63;4.80;;;;;;;18.76;48.89;99262.38;7029764;28;20200;-79
2022/07/16 05:03:23;;;;;;;7.80;4.77;;;;;;;18.79;49.47;99277.44;7034760;28;20228;-79
2022/07/16 05:06:57;;;;;;;6.73;5.60;;;;;;;19.58;47.38;99271.69;7040384;28;20262;-79
2022/07/16 05:10:19;;;;;;;5.53;4.77;;;;;;;19.00;48.42;99255.72;7046430;28;20225;-79
2022/07/16 05:13:40;;;;;;;5.50;5.00;;;;;;;18.99;49.14;99262.22;7038881;28;20259;-79
2022/07/16 05:17:02;;;;;;;6.57;5.43;;;;;;;19.04;48.73;99237.72;7038764;28;20670;-79
2022/07/16 05:20:25;;;;;;;6.20;4.93;;;;;;;19.43;48.17;99268.72;7034598;28;20755;-79
2022/07/16 05:23:47;;;;;;;7.23;6.50;;;;;;;19.34;47.84;99272.97;7035360;28;20221;-79
2022/07/16 05:27:08;;;;;;;5.47;4.97;;;;;;;19.51;47.73;99276.50;7034813;28;20664;-80
2022/07/16 05:30:30;;;;;;;7.57;5.10;;;;;;;19.76;46.96;99268.66;7034391;28;20232;-79
2022/07/16 05:33:51;;;;;;;5.23;4.73;;;;;;;19.99;46.52;99271.97;7034171;28;20233;-79
2022/07/16 05:37:15;;;;;;;6.23;5.23;;;;;;;20.03;46.33;99261.34;7034316;28;20603;-79
2022/07/16 05:40:36;;;;;;;5.30;4.80;;;;;;;20.29;46.16;99283.34;7037375;28;20602;-79
2022/07/16 05:43:58;;;;;;;5.87;4.97;;;;;;;20.20;46.46;99253.91;7035074;28;20227;-79
2022/07/16 05:47:19;;;;;;;5.90;4.97;;;;;;;21.11;45.04;99273.00;6997428;28;1100044;-79
2022/07/16 05:50:41;;;;;;;6.90;4.63;;;;;;;21.64;43.84;99279.16;7038243;28;20380;-79
2022/07/16 05:54:04;;;;;;;5.93;4.70;;;;;;;21.66;43.72;99275.03;7038240;28;20314;-79
2022/07/16 05:57:25;;;;;;;7.63;4.93;;;;;;;21.66;43.84;99282.47;7037300;28;20240;-79
2022/07/16 06:00:47;;;;;;;6.23;4.90;;;;;;;21.99;44.33;99266.50;7038700;28;20213;-80
2022/07/16 06:04:08;;;;;;;8.13;4.77;;;;;;;23.19;41.34;99268.78;7036656;28;20261;-80
2022/07/16 06:07:30;;;;;;;9.50;5.63;;;;;;;24.24;38.55;99255.63;7038718;28;20196;-80
2022/07/16 06:10:53;;;;;;;5.60;4.33;;;;;;;24.47;37.26;99218.28;7039542;28;20241;-79
2022/07/16 06:14:15;;;;;;;5.73;4.90;;;;;;;24.56;37.06;99249.69;7039459;28;20236;-79
2022/07/16 06:17:36;;;;;;;5.23;4.57;;;;;;;23.30;39.73;99257.47;7036177;28;20201;-80
2022/07/16 06:20:58;;;;;;;7.43;4.53;;;;;;;23.13;40.18;99267.91;7038469;28;20197;-79
2022/07/16 06:24:19;;;;;;;5.77;3.80;;;;;;;23.70;35.75;99271.22;7037905;28;20227;-80
2022/07/16 06:27:43;;;;;;;5.43;3.80;;;;;;;24.52;35.08;99268.72;7037593;28;20258;-79
2022/07/16 06:31:05;;;;;;;8.90;3.73;;;;;;;24.27;35.02;99281.81;7038772;28;20227;-80
2022/07/16 06:34:27;;;;;;;4.97;3.80;;;;;;;24.07;35.18;99268.91;7051146;28;20774;-79
2022/07/16 06:37:48;;;;;;;4.20;3.80;;;;;;;24.36;33.85;99275.41;7044325;28;20206;-79
2022/07/16 06:41:10;;;;;;;6.43;3.90;;;;;;;23.80;34.60;99251.91;7047812;28;20201;-80
2022/07/16 06:44:33;;;;;;;4.50;3.93;;;;;;;24.59;33.96;99287.75;7047782;28;20246;-80
2022/07/16 06:47:54;;;;;;;4.90;4.30;;;;;;;24.69;32.97;99288.53;7049447;28;20302;-79
2022/07/16 06:51:16;;;;;;;5.80;3.50;;;;;;;24.23;34.32;99280.72;7036704;28;20250;-79
2022/07/16 06:54:37;;;;;;;4.00;3.60;;;;;;;23.92;34.09;99298.44;7037168;28;20236;-79
2022/07/16 06:57:59;;;;;;;4.63;3.53;;;;;;;24.77;32.92;99287.09;7037450;28;20194;-80
2022/07/16 07:01:22;;;;;;;5.50;3.40;;;;;;;25.06;32.26;99283.31;7030740;28;20247;-79
2022/07/16 07:04:44;;;;;;;4.93;2.93;;;;;;;25.87;31.56;99288.97;7034904;28;20220;-80
2022/07/16 07:08:06;;;;;;;3.83;3.43;;;;;;;25.99;30.73;99290.25;7029753;28;20267;-80
2022/07/16 07:11:27;;;;;;;4.40;3.57;;;;;;;25.90;31.11;99278.19;7013227;28;20286;-79
2022/07/16 07:14:49;;;;;;;3.80;3.40;;;;;;;26.17;31.17;99292.25;7023682;28;20312;-80
2022/07/16 07:18:12;;;;;;;4.47;3.20;;;;;;;27.53;29.61;99285.59;7035503;28;20576;-80
2022/07/16 07:21:33;;;;;;;5.03;3.40;;;;;;;27.03;29.83;99261.50;7036330;28;20232;-80
2022/07/16 07:24:55;;;;;;;4.37;3.30;;;;;;;27.60;28.45;99291.59;7035764;28;20224;-80
2022/07/16 07:28:16;;;;;;;3.40;3.10;;;;;;;26.39;30.41;99295.31;7007271;28;20206;-80
2022/07/16 07:31:38;;;;;;;4.20;3.53;;;;;;;27.01;29.56;99281.16;7007897;28;20236;-79
2022/07/16 07:35:01;;;;;;;5.67;3.37;;;;;;;27.53;29.54;99285.59;7008108;28;20367;-80
2022/07/16 07:38:22;;;;;;;6.90;3.53;;;;;;;26.49;30.25;99255.63;7007860;28;20571;-80
2022/07/16 07:41:44;;;;;;;4.77;2.90;;;;;;;27.98;28.14;99298.69;7008535;28;20203;-80
2022/07/16 07:45:07;;;;;;;4.33;3.00;;;;;;;27.52;28.58;99257.09;7008377;28;20249;-80
2022/07/16 07:48:28;;;;;;;3.63;3.00;;;;;;;27.94;28.61;99295.69;7008660;28;20267;-80
2022/07/16 07:51:53;;;;;;;4.27;2.93;;;;;;;28.14;27.78;99295.31;7009437;28;20228;-80
2022/07/16 07:55:15;;;;;;;3.57;2.70;;;;;;;29.15;26.56;99267.06;7009460;28;20231;-79
2022/07/16 07:58:36;;;;;;;5.03;3.00;;;;;;;28.92;26.80;99289.50;7009425;28;20235;-80
2022/07/16 08:01:59;;;;;;;4.07;2.73;;;;;;;28.68;26.45;99273.13;7013475;28;20195;-80
2022/07/16 08:05:20;;;;;;;2.80;2.60;;;;;;;28.64;27.29;99288.75;7037962;28;20238;-80
2022/07/16 08:08:43;;;;;;;4.10;2.80;;;;;;;27.98;27.65;99260.69;7045137;28;20196;-80
2022/07/16 08:12:05;;;;;;;8.33;2.90;;;;;;;28.78;26.30;99285.94;7051766;28;20299;-80
2022/07/16 08:15:27;;;;;;;3.67;2.80;;;;;;;28.61;26.99;99281.03;7051724;28;20221;-80
2022/07/16 08:18:49;;;;;;;3.47;2.63;;;;;;;28.60;26.10;99284.94;7035008;28;20209;-80
2022/07/16 08:22:10;;;;;;;3.53;2.90;;;;;;;28.70;26.26;99279.19;7035098;28;20213;-80
2022/07/16 08:25:45;;;;;;;3.93;3.07;;;;;;;28.79;26.49;99290.38;7033970;28;20232;-80
2022/07/16 08:29:06;;;;;;;4.47;2.30;;;;;;;28.82;25.25;99276.69;7034799;28;20206;-80
2022/07/16 08:32:28;;;;;;;3.57;2.40;;;;;;;29.01;24.88;99279.34;7041945;28;20235;-81
2022/07/16 08:35:50;;;;;;;5.97;2.50;;;;;;;28.96;25.13;99279.47;7045802;28;20233;-80
2022/07/16 08:39:11;;;;;;;3.23;2.90;;;;;;;29.25;23.77;99280.69;7038891;28;20606;-80
2022/07/16 08:42:35;;;;;;;3.03;2.53;;;;;;;28.90;24.23;99281.47;7042199;28;20205;-80
2022/07/16 08:45:57;;;;;;;4.10;2.10;;;;;;;28.78;24.10;99275.66;7052390;28;20226;-81
2022/07/16 08:49:19;;;;;;;3.30;2.27;;;;;;;29.53;23.82;99261.94;7051672;28;20227;-80
2022/07/16 08:52:42;;;;;;;3.73;2.20;;;;;;;29.70;24.05;99282.34;7043170;28;20215;-80
2022/07/16 08:56:04;;;;;;;4.13;2.00;;;;;;;29.91;22.20;99274.28;7042459;28;20650;-80
2022/07/16 08:59:28;;;;;;;4.77;2.50;;;;;;;29.32;23.80;99278.28;7037635;28;20206;-79
2022/07/16 09:02:50;;;;;;;4.03;2.30;;;;;;;30.44;22.84;99252.75;7036715;28;20673;-80
2022/07/16 09:06:12;;;;;;;3.13;2.00;;;;;;;30.32;22.11;99288.72;7037115;28;20652;-79
2022/07/16 09:09:34;;;;;;;4.23;2.30;;;;;;;30.29;22.28;99272.66;7036984;28;20296;-80
2022/07/16 09:12:59;;;;;;;6.83;2.20;;;;;;;30.20;23.26;99283.75;7037394;28;20225;-80
2022/07/16 09:16:29;;;;;;;2.73;2.07;;;;;;;30.06;23.83;99285.81;7037342;28;20774;-80
2022/07/16 09:19:51;;;;;;;3.73;2.27;;;;;;;30.43;22.91;99282.53;7035890;28;20200;-80
2022/07/16 09:23:27;;;;;;;2.90;2.23;;;;;;;30.66;21.71;99281.31;7036818;28;20227;-80
2022/07/16 09:27:00;;;;;;;2.50;2.30;;;;;;;29.88;21.96;99269.34;7036740;28;20233;-80
2022/07/16 09:30:23;;;;;;;2.40;1.90;;;;;;;28.59;22.93;99283.31;7035529;28;20218;-79
2022/07/16 09:34:00;;;;;;;3.07;1.90;;;;;;;30.50;22.03;99276.50;7036438;28;20292;-80
2022/07/16 09:37:22;;;;;;;2.37;1.67;;;;;;;31.21;20.41;99278.78;7036744;28;20237;-80
2022/07/16 09:40:45;;;;;;;4.27;1.90;;;;;;;30.68;20.20;99284.63;7014669;28;20253;-80
2022/07/16 09:44:13;;;;;;;1.70;1.60;;;;;;;31.59;20.22;99282.50;7008314;28;20718;-80
2022/07/16 09:47:35;;;;;;;4.73;2.23;;;;;;;30.75;19.90;99262.69;7008395;28;20255;-79
2022/07/16 09:50:59;;;;;;;3.63;1.80;;;;;;;31.28;20.07;99279.09;7007012;28;20231;-80
2022/07/16 09:54:29;;;;;;;2.03;1.80;;;;;;;30.29;21.38;99276.28;7008422;28;20359;-79
2022/07/16 09:57:51;;;;;;;4.10;1.90;;;;;;;31.47;20.06;99279.56;7008173;28;20297;-80
2022/07/16 10:01:13;;;;;;;3.30;2.20;;;;;;;31.03;21.21;99286.31;7008675;28;20211;-79
2022/07/16 10:04:35;;;;;;;2.83;1.90;;;;;;;30.54;21.65;99249.66;7007913;28;20237;-80
2022/07/16 10:07:58;;;;;;;5.57;2.47;;;;;;;29.86;22.54;99264.13;7008408;28;20216;-79
2022/07/16 10:11:20;;;;;;;3.07;2.10;;;;;;;30.73;21.79;99273.28;7009243;28;20257;-78
2022/07/16 10:14:46;;;;;;;3.13;2.27;;;;;;;30.81;21.23;99278.06;7008777;28;20317;-79
2022/07/16 10:18:33;;;;;;;4.60;2.00;;;;;;;31.26;21.53;99276.63;7009285;28;20274;-80
2022/07/16 10:22:27;;;;;;;3.47;2.13;;;;;;;31.83;20.31;99266.09;7009374;28;20750;-79
2022/07/16 10:26:00;;;;;;;4.27;2.10;;;;;;;30.81;20.77;99272.50;7009362;28;20278;-80
2022/07/16 10:29:41;;;;;;;2.67;1.87;;;;;;;30.77;20.92;99276.28;7009206;28;20218;-79
2022/07/16 10:33:13;;;;;;;3.20;1.70;;;;;;;29.59;21.92;99275.41;7016656;28;20276;-79
2022/07/16 10:36:45;;;;;;;4.70;1.80;;;;;;;30.41;21.46;99276.47;7012536;28;20209;-80
2022/07/16 10:40:12;;;;;;;1.60;1.50;;;;;;;29.03;21.81;99283.44;7009589;28;20187;-80
2022/07/16 10:43:36;;;;;;;2.97;1.77;;;;;;;29.86;21.17;99283.59;7009478;28;20313;-80
2022/07/16 10:46:59;;;;;;;3.73;1.70;;;;;;;30.06;20.36;99274.69;7020548;28;20228;-81
2022/07/16 10:50:23;;;;;;;2.87;1.83;;;;;;;31.06;19.88;99265.31;7018477;28;20230;-80
2022/07/16 10:54:28;;;;;;;2.10;1.80;;;;;;;30.43;20.33;99265.84;7009236;28;20282;-79
2022/07/16 10:57:51;;;;;;;6.70;1.83;;;;;;;29.96;20.22;99277.72;7008425;28;20211;-80
2022/07/16 11:01:14;;;;;;;2.17;1.60;;;;;;;29.14;20.96;99279.28;7007676;28;20294;-80
2022/07/16 11:04:37;;;;;;;1.90;1.70;;;;;;;30.38;20.13;99224.22;7007210;28;20326;-79
2022/07/16 11:08:09;;;;;;;5.30;1.73;;;;;;;32.02;19.07;99256.16;7006609;28;20194;-80
2022/07/16 11:11:32;;;;;;;2.90;1.73;;;;;;;33.66;17.70;99275.97;7007058;28;20231;-80
2022/07/16 11:14:56;;;;;;;2.00;1.80;;;;;;;31.66;18.69;99250.19;7007223;28;20228;-79
2022/07/16 11:18:18;;;;;;;2.10;1.90;;;;;;;31.29;18.19;99276.00;7007230;28;20223;-80
2022/07/16 11:21:52;;;;;;;4.20;1.60;;;;;;;30.49;19.15;99274.88;7007496;28;20555;-80
2022/07/16 11:25:14;;;;;;;2.50;1.50;;;;;;;30.97;19.13;99278.41;7013311;28;20227;-79
2022/07/16 11:28:36;;;;;;;2.17;1.70;;;;;;;32.34;17.62;99255.56;7021161;28;20211;-80
2022/07/16 11:32:00;;;;;;;1.80;1.40;;;;;;;32.38;17.42;99269.69;7022853;28;20255;-80
2022/07/16 11:35:23;;;;;;;1.47;1.37;;;;;;;32.74;17.23;99281.97;7008290;28;20228;-79
2022/07/16 11:38:44;;;;;;;1.47;1.37;;;;;;;31.25;17.29;99255.50;7008825;28;20280;-80
2022/07/16 11:42:07;;;;;;;1.60;1.50;;;;;;;31.70;17.95;99262.31;7026667;28;20240;-80
2022/07/16 11:45:29;;;;;;;4.13;1.80;;;;;;;32.02;17.60;99270.13;7034864;28;20248;-80
2022/07/16 11:48:51;;;;;;;3.97;1.70;;;;;;;30.86;18.23;99264.00;7034765;28;20254;-79
2022/07/16 11:52:24;;;;;;;1.67;1.50;;;;;;;31.81;18.50;99257.22;7034736;28;20224;-79
2022/07/16 11:55:46;;;;;;;2.20;1.50;;;;;;;31.78;18.24;99281.03;7034773;28;20338;-81
2022/07/16 11:59:17;;;;;;;1.73;1.30;;;;;;;31.11;17.95;99276.28;7033716;28;20210;-80
2022/07/16 12:02:44;;;;;;;2.03;1.50;;;;;;;32.29;17.89;99268.88;7036555;28;20188;-79
2022/07/16 12:06:08;;;;;;;3.13;1.50;;;;;;;32.04;18.29;99272.59;7034205;28;20232;-79
2022/07/16 12:09:36;;;;;;;2.70;1.43;;;;;;;32.80;17.88;99261.06;7036325;28;20326;-79
2022/07/16 12:13:04;;;;;;;2.37;1.30;;;;;;;31.13;19.86;99258.09;7034729;28;20232;-79
2022/07/16 12:16:26;;;;;;;2.10;1.90;;;;;;;31.91;18.90;99274.41;7039591;28;20254;-79
2022/07/16 12:20:03;;;;;;;1.67;1.40;;;;;;;31.10;19.98;99263.50;7042770;28;20293;-80
2022/07/16 12:23:32;;;;;;;2.93;1.50;;;;;;;31.83;19.57;99272.47;7042640;28;20269;-80
2022/07/16 12:26:55;;;;;;;1.67;1.57;;;;;;;31.48;20.52;99278.44;7042171;28;20213;-80
2022/07/16 12:30:17;;;;;;;2.30;1.60;;;;;;;32.30;19.33;99279.72;7043402;28;20219;-80
2022/07/16 12:33:39;;;;;;;4.70;1.50;;;;;;;30.47;20.13;99269.63;7050778;28;20297;-81
2022/07/16 12:37:00;;;;;;;1.93;1.80;;;;;;;31.75;20.36;99289.25;7048576;28;20266;-81
2022/07/16 12:40:23;;;;;;;1.47;1.37;;;;;;;32.43;18.38;99278.66;7044723;28;20216;-80
2022/07/16 12:43:49;;;;;;;1.93;1.50;;;;;;;32.96;18.51;99272.47;7044634;28;20254;-79
2022/07/16 12:47:11;;;;;;;3.20;1.50;;;;;;;32.61;18.24;99276.63;7048373;28;20226;-80
2022/07/16 12:50:33;;;;;;;1.63;1.47;;;;;;;32.11;18.93;99251.38;7057821;28;20232;-80
2022/07/16 12:53:56;;;;;;;1.97;1.40;;;;;;;31.69;19.57;99271.00;7047141;28;20240;-80
2022/07/16 13:00:58;;;;;;;1.57;1.47;;;;;;;32.32;18.98;99265.44;7041351;28;20672;-80
2022/07/16 13:04:21;;;;;;;1.50;1.40;;;;;;;31.99;19.26;99264.38;7041905;28;20248;-80
2022/07/16 13:07:42;;;;;;;2.00;1.60;;;;;;;32.27;18.99;99262.84;7042878;28;20292;-80
2022/07/16 13:11:04;;;;;;;3.60;1.43;;;;;;;31.60;19.64;99247.91;7043700;28;20262;-80
2022/07/16 13:14:26;;;;;;;1.20;1.20;;;;;;;32.88;19.04;99249.00;7044793;28;20232;-80
2022/07/16 13:17:48;;;;;;;1.40;1.30;;;;;;;32.65;18.94;99246.84;7049422;28;20266;-81
2022/07/16 13:21:10;;;;;;;2.70;1.27;;;;;;;31.91;20.07;99259.66;7050208;28;20234;-80
2022/07/16 13:24:32;;;;;;;2.07;1.30;;;;;;;31.88;19.74;99263.09;7045464;28;20231;-80
2022/07/16 13:27:53;;;;;;;2.20;1.70;;;;;;;32.40;19.01;99247.81;7041054;28;20208;-81
2022/07/16 13:31:15;;;;;;;4.10;1.50;;;;;;;32.73;17.81;99245.97;7041273;28;20220;-80
2022/07/16 13:34:38;;;;;;;2.70;1.43;;;;;;;32.67;18.11;99252.91;7040520;28;20236;-80
2022/07/16 13:37:59;;;;;;;4.50;1.70;;;;;;;31.52;19.09;99255.16;7040682;28;20273;-80
2022/07/16 13:41:21;;;;;;;1.83;1.50;;;;;;;31.78;19.09;99230.81;7030131;28;20646;-80
2022/07/16 13:44:43;;;;;;;2.63;1.40;;;;;;;31.42;19.91;99249.09;7013688;28;20285;-80
2022/07/16 13:48:05;;;;;;;2.70;1.30;;;;;;;31.67;19.64;99248.22;7012872;28;20213;-80
2022/07/16 13:51:28;;;;;;;2.60;1.60;;;;;;;32.30;19.58;99245.44;7013474;28;20229;-80
2022/07/16 13:54:50;;;;;;;3.67;1.80;;;;;;;31.82;19.58;99248.53;7013524;28;20295;-80
2022/07/16 13:58:14;;;;;;;2.10;1.53;;;;;;;30.93;20.22;99249.56;7013310;28;20287;-80
2022/07/16 14:01:36;;;;;;;3.23;1.60;;;;;;;30.95;20.47;99228.59;7013435;28;20203;-80
2022/07/16 14:04:57;;;;;;;3.73;1.90;;;;;;;32.25;19.69;99246.41;7012253;28;20235;-80
2022/07/16 14:08:21;;;;;;;2.77;1.50;;;;;;;32.32;19.25;99243.09;7013177;28;20281;-81
2022/07/16 14:11:42;;;;;;;2.23;1.63;;;;;;;32.22;19.44;99238.69;7013435;28;20244;-82
2022/07/16 14:15:05;;;;;;;2.20;1.83;;;;;;;32.70;18.87;99238.25;7013636;28;20233;-80
2022/07/16 14:18:26;;;;;;;5.07;1.70;;;;;;;32.49;18.98;99254.97;7013410;28;20211;-80
2022/07/16 14:21:48;;;;;;;2.37;1.63;;;;;;;32.67;18.79;99211.81;7014784;28;20236;-81
2022/07/16 14:25:12;;;;;;;2.20;2.00;;;;;;;31.97;19.53;99250.75;7015671;28;20271;-80
2022/07/16 14:28:33;;;;;;;1.87;1.53;;;;;;;32.23;19.25;99248.69;7018076;28;20204;-80
2022/07/16 14:31:55;;;;;;;4.53;1.90;;;;;;;32.52;19.28;99240.34;7022267;28;20276;-80
2022/07/16 14:35:17;;;;;;;1.77;1.67;;;;;;;32.67;18.82;99264.88;7023676;28;20247;-80
2022/07/16 14:38:38;;;;;;;2.23;1.80;;;;;;;32.01;18.85;99256.53;7014801;28;20224;-80
2022/07/16 14:42:01;;;;;;;2.60;1.67;;;;;;;30.55;20.06;99248.53;7016333;28;20205;-80
2022/07/16 14:45:23;;;;;;;3.40;2.00;;;;;;;31.83;19.35;99250.16;7023179;28;20232;-81
2022/07/16 14:48:45;;;;;;;2.50;1.80;;;;;;;31.42;19.18;99235.97;7029190;28;20176;-81
2022/07/16 14:52:07;;;;;;;3.60;1.70;;;;;;;31.43;19.89;99248.75;7023743;28;20223;-80
2022/07/16 14:55:29;;;;;;;4.40;1.80;;;;;;;31.88;19.80;99260.31;7013987;28;20777;-80
2022/07/16 14:58:52;;;;;;;4.87;1.93;;;;;;;31.92;20.26;99258.50;7012675;28;20215;-80
2022/07/16 15:02:13;;;;;;;2.80;1.90;;;;;;;31.76;20.64;99263.81;7011194;28;20676;-80
2022/07/16 15:05:38;;;;;;;2.33;1.70;;;;;;;31.71;20.41;99233.28;7007002;28;20228;-79
2022/07/16 15:09:00;;;;;;;3.93;2.03;;;;;;;30.90;21.69;99256.63;7006709;28;20195;-79
2022/07/16 15:12:21;;;;;;;2.10;1.63;;;;;;;30.76;21.20;99258.75;7006143;28;20247;-78
2022/07/16 15:15:44;;;;;;;2.83;1.87;;;;;;;31.11;21.48;99259.56;7005176;28;20333;-79
2022/07/16 15:19:06;;;;;;;4.03;1.90;;;;;;;31.30;21.06;99257.31;7006343;28;20230;-79
2022/07/16 15:22:27;;;;;;;2.73;1.87;;;;;;;31.76;20.74;99255.44;7006270;28;20199;-79
2022/07/16 15:25:49;;;;;;;2.10;1.90;;;;;;;31.79;20.45;99254.75;7005862;28;20314;-78
2022/07/16 15:29:11;;;;;;;4.13;2.03;;;;;;;30.83;20.85;99252.69;7004892;28;20215;-79
2022/07/16 15:32:34;;;;;;;2.37;2.17;;;;;;;31.62;20.94;99257.59;7004950;28;20318;-79
2022/07/16 15:35:56;;;;;;;2.53;1.80;;;;;;;30.63;21.89;99244.91;7004926;28;20229;-78
2022/07/16 15:39:17;;;;;;;2.10;1.90;;;;;;;31.30;21.04;99257.31;7005421;28;20236;-78
2022/07/16 15:42:39;;;;;;;2.53;1.87;;;;;;;31.20;21.20;99255.66;7008313;28;20234;-78
2022/07/16 15:46:01;;;;;;;3.97;1.80;;;;;;;31.24;21.21;99253.06;7005199;28;20738;-79
2022/07/16 15:49:23;;;;;;;2.00;1.80;;;;;;;31.42;21.17;99249.91;7008836;28;20242;-79
2022/07/16 15:52:45;;;;;;;3.60;2.30;;;;;;;31.46;19.99;99259.25;7011683;28;20232;-80
2022/07/16 15:56:07;;;;;;;2.07;1.73;;;;;;;31.44;20.07;99255.97;7012085;28;20254;-79
2022/07/16 15:59:29;;;;;;;2.20;1.97;;;;;;;31.59;20.65;99244.31;7010046;28;20234;-79
2022/07/16 16:02:50;;;;;;;2.60;1.93;;;;;;;31.83;20.37;99246.59;7009891;28;20221;-80